Погода Аникунсна 2 недели

Гояс, Бразилия

25 июля-07 августа
  • 25июля
    Сегодня
    +15°
    +30°
    Ясно и безоблачно
    ВремяПогодаТемператураВлажностьДавлениеВетер, м/сВероятность осадков
    00:00Ясно и безоблачно+20°C39 %691 мм2.9 м/с5 %
    03:00Ясно и безоблачно+17°C44 %690 мм3.1 м/с5 %
    06:00Ясно и безоблачно+16°C48 %690 мм2.8 м/с5 %
    09:00Ясно и безоблачно+22°C35 %692 мм2.5 м/с5 %
    12:00Ясно и безоблачно+28°C24 %693 мм0.5 м/с5 %
    15:00Ясно и безоблачно+30°C22 %691 мм2.1 м/с5 %
    18:00Ясно и безоблачно+26°C31 %690 мм2.1 м/с5 %
    21:00Ясно и безоблачно+22°C33 %690 мм2.2 м/с5 %
  • 26июля
    Пятница
    +15°
    +31°
    Ясно и безоблачно
    ВремяПогодаТемператураВлажностьДавлениеВетер, м/сВероятность осадков
    00:00Ясно и безоблачно+19°C39 %689 мм2.6 м/с5 %
    03:00Ясно и безоблачно+17°C43 %688 мм2.9 м/с5 %
    06:00Ясно и безоблачно+15°C49 %688 мм2.9 м/с5 %
    09:00Ясно и безоблачно+21°C38 %691 мм2.6 м/с5 %
    12:00Ясно и безоблачно+28°C22 %692 мм1.7 м/с5 %
    15:00Ясно и безоблачно+30°C20 %690 мм0.4 м/с5 %
    18:00Ясно и безоблачно+27°C29 %689 мм1.8 м/с5 %
    21:00Ясно и безоблачно+23°C31 %689 мм1.8 м/с5 %
  • 27июля
    Суббота
    +16°
    +32°
    Ясно и безоблачно
    ВремяПогодаТемператураВлажностьДавлениеВетер, м/сВероятность осадков
    00:00Практически безоблачно+20°C36 %689 мм0.4 м/с5 %
    03:00Ясно и безоблачно+17°C39 %687 мм2.1 м/с5 %
    06:00Ясно и безоблачно+15°C42 %687 мм2.4 м/с5 %
    09:00Ясно и безоблачно+23°C35 %691 мм2.5 м/с5 %
    12:00Ясно и безоблачно+29°C23 %692 мм2.3 м/с5 %
    15:00Ясно и безоблачно+31°C21 %690 мм1.2 м/с5 %
    18:00Ясно и безоблачно+29°C27 %690 мм1.1 м/с5 %
    21:00Ясно и безоблачно+23°C34 %690 мм2.2 м/с5 %
  • 28июля
    Воскресенье
    +17°
    +32°
    Ясно и безоблачно
    ВремяПогодаТемператураВлажностьДавлениеВетер, м/сВероятность осадков
    00:00Ясно и безоблачно+20°C41 %690 мм1.5 м/с5 %
    03:00Ясно и безоблачно+18°C46 %688 мм2.0 м/с5 %
    06:00Ясно и безоблачно+16°C53 %689 мм2.1 м/с5 %
    09:00Ясно и безоблачно+24°C43 %692 мм3.4 м/с5 %
    12:00Ясно и безоблачно+30°C26 %692 мм2.5 м/с5 %
    15:00Ясно и безоблачно+32°C24 %691 мм1.6 м/с5 %
    18:00Небольшая облачность+29°C32 %690 мм1.0 м/с5 %
    21:00Небольшая облачность+25°C34 %691 мм1.8 м/с5 %
  • 29июля
    Понедельник
    +19°
    +33°
    Небольшая облачность
    ВремяПогодаТемператураВлажностьДавлениеВетер, м/сВероятность осадков
    00:00Пасмурно, сплошная облачность+22°C40 %690 мм1.2 м/с5 %
    03:00Практически безоблачно+21°C43 %689 мм1.4 м/с5 %
    06:00Ясно и безоблачно+18°C49 %689 мм2.0 м/с5 %
    09:00Ясно и безоблачно+25°C37 %692 мм1.9 м/с5 %
    12:00Практически безоблачно+30°C24 %692 мм0.7 м/с5 %
    15:00Небольшая облачность+32°C21 %691 мм1.6 м/с5 %
    18:00Облачно с прояснениями+29°C27 %690 мм0.9 м/с5 %
    21:00Практически безоблачно+25°C32 %690 мм1.9 м/с5 %
Мы используем cookies
Соглашаюсь